sensor_id;sensor_type;location;lat;lon;timestamp;pressure;altitude;pressure_sealevel;temperature;humidity
51289;BME280;37372;52.294;5.152;2022-07-15T00:01:41;102389.34;;;13.91;81.75
51289;BME280;37372;52.294;5.152;2022-07-15T00:04:07;102396.19;;;13.86;81.74
51289;BME280;37372;52.294;5.152;2022-07-15T00:06:32;102397.44;;;13.82;81.48
51289;BME280;37372;52.294;5.152;2022-07-15T00:08:58;102396.22;;;13.79;81.55
51289;BME280;37372;52.294;5.152;2022-07-15T00:11:23;102395.78;;;13.74;81.79
51289;BME280;37372;52.294;5.152;2022-07-15T00:13:48;102402.25;;;13.78;82.04
51289;BME280;37372;52.294;5.152;2022-07-15T00:16:14;102395.00;;;13.80;81.40
51289;BME280;37372;52.294;5.152;2022-07-15T00:18:40;102396.19;;;13.76;81.97
51289;BME280;37372;52.294;5.152;2022-07-15T00:21:06;102397.00;;;13.73;81.60
51289;BME280;37372;52.294;5.152;2022-07-15T00:23:31;102399.81;;;13.69;82.72
51289;BME280;37372;52.294;5.152;2022-07-15T00:25:57;102398.56;;;13.63;82.66
51289;BME280;37372;52.294;5.152;2022-07-15T00:28:22;102396.97;;;13.65;83.39
51289;BME280;37372;52.294;5.152;2022-07-15T00:30:47;102396.56;;;13.63;83.02
51289;BME280;37372;52.294;5.152;2022-07-15T00:33:13;102401.38;;;13.56;83.69
51289;BME280;37372;52.294;5.152;2022-07-15T00:35:39;102404.59;;;13.58;84.38
51289;BME280;37372;52.294;5.152;2022-07-15T00:38:07;102398.56;;;13.49;84.94
51289;BME280;37372;52.294;5.152;2022-07-15T00:40:41;102390.88;;;13.45;85.89
51289;BME280;37372;52.294;5.152;2022-07-15T00:43:07;102386.03;;;13.42;86.08
51289;BME280;37372;52.294;5.152;2022-07-15T00:45:34;102390.06;;;13.41;86.15
51289;BME280;37372;52.294;5.152;2022-07-15T00:47:59;102390.03;;;13.38;86.58
51289;BME280;37372;52.294;5.152;2022-07-15T00:50:27;102378.38;;;13.36;86.72
51289;BME280;37372;52.294;5.152;2022-07-15T00:53:00;102375.53;;;13.32;86.96
51289;BME280;37372;52.294;5.152;2022-07-15T00:55:30;102373.13;;;13.31;87.22
51289;BME280;37372;52.294;5.152;2022-07-15T00:58:00;102378.75;;;13.31;87.21
51289;BME280;37372;52.294;5.152;2022-07-15T01:00:27;102384.41;;;13.31;86.47
51289;BME280;37372;52.294;5.152;2022-07-15T01:02:53;102379.56;;;13.31;85.54
51289;BME280;37372;52.294;5.152;2022-07-15T01:05:20;102382.38;;;13.31;85.33
51289;BME280;37372;52.294;5.152;2022-07-15T01:07:47;102385.63;;;13.33;85.00
51289;BME280;37372;52.294;5.152;2022-07-15T01:10:15;102383.56;;;13.27;84.77
51289;BME280;37372;52.294;5.152;2022-07-15T01:12:41;102370.28;;;13.27;85.17
51289;BME280;37372;52.294;5.152;2022-07-15T01:15:08;102377.09;;;13.26;85.62
51289;BME280;37372;52.294;5.152;2022-07-15T01:17:33;102374.28;;;13.26;85.46
51289;BME280;37372;52.294;5.152;2022-07-15T01:19:59;102379.91;;;13.26;85.32
51289;BME280;37372;52.294;5.152;2022-07-15T01:22:24;102374.66;;;13.24;85.71
51289;BME280;37372;52.294;5.152;2022-07-15T01:24:51;102380.31;;;13.21;85.44
51289;BME280;37372;52.294;5.152;2022-07-15T01:27:17;102379.50;;;13.24;85.68
51289;BME280;37372;52.294;5.152;2022-07-15T01:29:43;102380.31;;;13.21;85.54
51289;BME280;37372;52.294;5.152;2022-07-15T01:32:08;102386.34;;;13.23;85.07
51289;BME280;37372;52.294;5.152;2022-07-15T01:34:33;102387.94;;;13.24;85.79
51289;BME280;37372;52.294;5.152;2022-07-15T01:36:59;102389.16;;;13.23;85.58
51289;BME280;37372;52.294;5.152;2022-07-15T01:39:24;102389.97;;;13.23;85.32
51289;BME280;37372;52.294;5.152;2022-07-15T01:41:50;102388.75;;;13.21;85.06
51289;BME280;37372;52.294;5.152;2022-07-15T01:44:15;102388.34;;;13.22;85.51
51289;BME280;37372;52.294;5.152;2022-07-15T01:46:41;102387.59;;;13.29;85.88
51289;BME280;37372;52.294;5.152;2022-07-15T01:49:06;102385.13;;;13.24;85.98
51289;BME280;37372;52.294;5.152;2022-07-15T01:51:47;102394.03;;;13.30;86.21
51289;BME280;37372;52.294;5.152;2022-07-15T01:54:12;102381.56;;;13.27;86.17
51289;BME280;37372;52.294;5.152;2022-07-15T01:56:37;102384.75;;;13.25;86.17
51289;BME280;37372;52.294;5.152;2022-07-15T01:59:03;102388.38;;;13.26;86.48
51289;BME280;37372;52.294;5.152;2022-07-15T02:01:29;102384.38;;;13.27;86.25
51289;BME280;37372;52.294;5.152;2022-07-15T02:03:54;102387.19;;;13.27;86.84
51289;BME280;37372;52.294;5.152;2022-07-15T02:06:19;102387.56;;;13.25;86.79
51289;BME280;37372;52.294;5.152;2022-07-15T02:08:45;102386.75;;;13.21;86.40
51289;BME280;37372;52.294;5.152;2022-07-15T02:11:10;102388.75;;;13.21;86.90
51289;BME280;37372;52.294;5.152;2022-07-15T02:13:36;102380.69;;;13.16;86.96
51289;BME280;37372;52.294;5.152;2022-07-15T02:16:01;102386.31;;;13.16;86.81
51289;BME280;37372;52.294;5.152;2022-07-15T02:18:28;102385.91;;;13.14;87.33
51289;BME280;37372;52.294;5.152;2022-07-15T02:20:53;102387.06;;;13.06;88.25
51289;BME280;37372;52.294;5.152;2022-07-15T02:23:19;102389.94;;;13.13;87.55
51289;BME280;37372;52.294;5.152;2022-07-15T02:25:44;102395.16;;;13.11;87.90
51289;BME280;37372;52.294;5.152;2022-07-15T02:28:10;102385.47;;;13.08;88.03
51289;BME280;37372;52.294;5.152;2022-07-15T02:30:40;102385.88;;;13.07;88.07
51289;BME280;37372;52.294;5.152;2022-07-15T02:33:05;102387.47;;;13.08;88.40
51289;BME280;37372;52.294;5.152;2022-07-15T02:35:31;102382.63;;;13.04;88.06
51289;BME280;37372;52.294;5.152;2022-07-15T02:37:57;102393.09;;;13.00;87.63
51289;BME280;37372;52.294;5.152;2022-07-15T02:40:23;102391.44;;;12.99;87.40
51289;BME280;37372;52.294;5.152;2022-07-15T02:42:54;102388.63;;;12.99;87.36
51289;BME280;37372;52.294;5.152;2022-07-15T02:45:22;102395.47;;;12.98;86.68
51289;BME280;37372;52.294;5.152;2022-07-15T02:47:48;102389.44;;;12.96;88.09
51289;BME280;37372;52.294;5.152;2022-07-15T02:50:14;102390.66;;;12.95;87.86
51289;BME280;37372;52.294;5.152;2022-07-15T02:52:40;102395.88;;;12.93;87.74
51289;BME280;37372;52.294;5.152;2022-07-15T02:55:06;102394.66;;;12.94;87.37
51289;BME280;37372;52.294;5.152;2022-07-15T02:57:32;102401.91;;;12.95;87.38
51289;BME280;37372;52.294;5.152;2022-07-15T02:59:57;102405.09;;;12.90;86.59
51289;BME280;37372;52.294;5.152;2022-07-15T03:02:24;102397.03;;;12.92;87.74
51289;BME280;37372;52.294;5.152;2022-07-15T03:04:49;102398.25;;;12.88;86.71
51289;BME280;37372;52.294;5.152;2022-07-15T03:07:14;102397.84;;;12.86;87.11
51289;BME280;37372;52.294;5.152;2022-07-15T03:09:40;102388.16;;;12.83;87.50
51289;BME280;37372;52.294;5.152;2022-07-15T03:12:05;102405.06;;;12.83;87.55
51289;BME280;37372;52.294;5.152;2022-07-15T03:14:30;102408.25;;;12.81;87.98
51289;BME280;37372;52.294;5.152;2022-07-15T03:16:56;102400.97;;;12.77;88.40
51289;BME280;37372;52.294;5.152;2022-07-15T03:19:21;102410.16;;;12.67;88.77
51289;BME280;37372;52.294;5.152;2022-07-15T03:21:47;102410.97;;;12.64;89.04
51289;BME280;37372;52.294;5.152;2022-07-15T03:24:16;102405.75;;;12.66;89.50
51289;BME280;37372;52.294;5.152;2022-07-15T03:26:41;102410.16;;;12.67;88.95
51289;BME280;37372;52.294;5.152;2022-07-15T03:29:07;102404.16;;;12.65;88.97
51289;BME280;37372;52.294;5.152;2022-07-15T03:31:32;102409.34;;;12.63;89.48
51289;BME280;37372;52.294;5.152;2022-07-15T03:33:57;102424.25;;;12.67;88.90
51289;BME280;37372;52.294;5.152;2022-07-15T03:36:23;102429.06;;;12.66;89.17
51289;BME280;37372;52.294;5.152;2022-07-15T03:38:50;102424.22;;;12.63;89.91
51289;BME280;37372;52.294;5.152;2022-07-15T03:41:18;102422.63;;;12.66;89.62
51289;BME280;37372;52.294;5.152;2022-07-15T03:43:43;102427.44;;;12.62;89.71
51289;BME280;37372;52.294;5.152;2022-07-15T03:46:09;102433.06;;;12.62;90.31
51289;BME280;37372;52.294;5.152;2022-07-15T03:48:34;102434.28;;;12.60;90.27
51289;BME280;37372;52.294;5.152;2022-07-15T03:50:59;102437.09;;;12.60;90.36
51289;BME280;37372;52.294;5.152;2022-07-15T03:53:25;102437.06;;;12.57;89.97
51289;BME280;37372;52.294;5.152;2022-07-15T03:55:50;102445.09;;;12.55;90.17
51289;BME280;37372;52.294;5.152;2022-07-15T03:58:15;102442.66;;;12.53;90.96
51289;BME280;37372;52.294;5.152;2022-07-15T04:00:41;102447.47;;;12.53;91.54
51289;BME280;37372;52.294;5.152;2022-07-15T04:03:06;102446.69;;;12.52;91.96
51289;BME280;37372;52.294;5.152;2022-07-15T04:05:31;102457.88;;;12.45;92.62
51289;BME280;37372;52.294;5.152;2022-07-15T04:07:57;102451.00;;;12.39;92.92
51289;BME280;37372;52.294;5.152;2022-07-15T04:10:22;102454.19;;;12.37;92.93
51289;BME280;37372;52.294;5.152;2022-07-15T04:12:47;102452.19;;;12.38;93.33
51289;BME280;37372;52.294;5.152;2022-07-15T04:15:13;102455.41;;;12.40;92.95
51289;BME280;37372;52.294;5.152;2022-07-15T04:17:39;102453.81;;;12.39;93.19
51289;BME280;37372;52.294;5.152;2022-07-15T04:20:07;102449.41;;;12.42;94.27
51289;BME280;37372;52.294;5.152;2022-07-15T04:22:43;102458.59;;;12.38;95.04
51289;BME280;37372;52.294;5.152;2022-07-15T04:25:11;102452.19;;;12.38;94.86
51289;BME280;37372;52.294;5.152;2022-07-15T04:27:39;102452.19;;;12.38;94.85
51289;BME280;37372;52.294;5.152;2022-07-15T04:30:05;102455.03;;;12.42;94.73
51289;BME280;37372;52.294;5.152;2022-07-15T04:32:31;102456.28;;;12.44;93.77
51289;BME280;37372;52.294;5.152;2022-07-15T04:34:56;102447.41;;;12.46;93.79
51289;BME280;37372;52.294;5.152;2022-07-15T04:37:22;102459.91;;;12.48;94.71
51289;BME280;37372;52.294;5.152;2022-07-15T04:39:47;102458.72;;;12.49;94.53
51289;BME280;37372;52.294;5.152;2022-07-15T04:42:13;102461.56;;;12.53;94.36
51289;BME280;37372;52.294;5.152;2022-07-15T04:44:38;102462.41;;;12.57;94.50
51289;BME280;37372;52.294;5.152;2022-07-15T04:47:03;102470.88;;;12.60;94.54
51289;BME280;37372;52.294;5.152;2022-07-15T04:49:29;102465.22;;;12.60;95.79
51289;BME280;37372;52.294;5.152;2022-07-15T04:52:14;102471.66;;;12.61;95.54
51289;BME280;37372;52.294;5.152;2022-07-15T04:54:39;102469.28;;;12.63;95.79
51289;BME280;37372;52.294;5.152;2022-07-15T04:57:04;102470.13;;;12.67;95.55
51289;BME280;37372;52.294;5.152;2022-07-15T04:59:30;102472.16;;;12.74;95.37
51289;BME280;37372;52.294;5.152;2022-07-15T05:01:55;102469.78;;;12.76;95.03
51289;BME280;37372;52.294;5.152;2022-07-15T05:04:21;102473.81;;;12.82;94.46
51289;BME280;37372;52.294;5.152;2022-07-15T05:06:47;102470.25;;;12.85;94.98
51289;BME280;37372;52.294;5.152;2022-07-15T05:09:12;102463.41;;;12.90;94.64
51289;BME280;37372;52.294;5.152;2022-07-15T05:11:37;102467.88;;;12.94;94.36
51289;BME280;37372;52.294;5.152;2022-07-15T05:14:03;102474.38;;;13.02;94.17
51289;BME280;37372;52.294;5.152;2022-07-15T05:16:28;102474.00;;;13.07;94.43
51289;BME280;37372;52.294;5.152;2022-07-15T05:18:54;102480.91;;;13.17;93.78
51289;BME280;37372;52.294;5.152;2022-07-15T05:21:20;102472.06;;;13.22;93.89
51289;BME280;37372;52.294;5.152;2022-07-15T05:23:45;102480.22;;;13.31;94.06
51289;BME280;37372;52.294;5.152;2022-07-15T05:26:11;102471.81;;;13.41;93.99
51289;BME280;37372;52.294;5.152;2022-07-15T05:28:37;102469.41;;;13.51;93.06
51289;BME280;37372;52.294;5.152;2022-07-15T05:31:04;102466.66;;;13.61;93.00
51289;BME280;37372;52.294;5.152;2022-07-15T05:33:30;102465.09;;;13.75;91.80
51289;BME280;37372;52.294;5.152;2022-07-15T05:35:55;102461.91;;;13.87;91.72
51289;BME280;37372;52.294;5.152;2022-07-15T05:38:20;102469.16;;;13.99;92.28
51289;BME280;37372;52.294;5.152;2022-07-15T05:40:46;102470.00;;;14.06;89.94
51289;BME280;37372;52.294;5.152;2022-07-15T05:43:11;102473.66;;;14.21;88.84
51289;BME280;37372;52.294;5.152;2022-07-15T05:45:45;102467.22;;;14.31;86.98
51289;BME280;37372;52.294;5.152;2022-07-15T05:48:10;102468.84;;;14.54;86.17
51289;BME280;37372;52.294;5.152;2022-07-15T05:50:36;102464.41;;;14.67;83.77
51289;BME280;37372;52.294;5.152;2022-07-15T05:53:01;102478.94;;;14.76;82.72
51289;BME280;37372;52.294;5.152;2022-07-15T05:55:27;102464.41;;;14.82;81.72
51289;BME280;37372;52.294;5.152;2022-07-15T05:57:52;102459.16;;;14.91;81.05
51289;BME280;37372;52.294;5.152;2022-07-15T06:00:17;102465.97;;;15.11;81.21
51289;BME280;37372;52.294;5.152;2022-07-15T06:02:43;102466.34;;;15.20;80.26
51289;BME280;37372;52.294;5.152;2022-07-15T06:05:08;102471.56;;;15.26;80.85
51289;BME280;37372;52.294;5.152;2022-07-15T06:07:35;102463.47;;;15.35;81.09
51289;BME280;37372;52.294;5.152;2022-07-15T06:10:01;102461.78;;;15.48;80.14
51289;BME280;37372;52.294;5.152;2022-07-15T06:12:26;102463.78;;;15.58;77.11
51289;BME280;37372;52.294;5.152;2022-07-15T06:14:52;102464.97;;;15.61;76.51
51289;BME280;37372;52.294;5.152;2022-07-15T06:17:17;102465.34;;;15.67;76.67
51289;BME280;37372;52.294;5.152;2022-07-15T06:19:42;102456.84;;;15.74;76.42
51289;BME280;37372;52.294;5.152;2022-07-15T06:22:08;102459.22;;;15.86;75.54
51289;BME280;37372;52.294;5.152;2022-07-15T06:24:33;102456.75;;;15.95;75.64
51289;BME280;37372;52.294;5.152;2022-07-15T06:26:58;102460.25;;;16.14;72.26
51289;BME280;37372;52.294;5.152;2022-07-15T06:29:24;102457.31;;;16.28;71.05
51289;BME280;37372;52.294;5.152;2022-07-15T06:31:49;102469.31;;;16.46;69.55
51289;BME280;37372;52.294;5.152;2022-07-15T06:34:15;102462.91;;;16.35;71.82
51289;BME280;37372;52.294;5.152;2022-07-15T06:36:40;102465.75;;;16.39;72.72
51289;BME280;37372;52.294;5.152;2022-07-15T06:39:06;102471.44;;;16.32;72.05
51289;BME280;37372;52.294;5.152;2022-07-15T06:41:32;102478.97;;;16.53;70.63
51289;BME280;37372;52.294;5.152;2022-07-15T06:43:58;102477.38;;;16.52;71.60
51289;BME280;37372;52.294;5.152;2022-07-15T06:46:24;102477.22;;;16.66;69.74
51289;BME280;37372;52.294;5.152;2022-07-15T06:48:52;102473.75;;;16.47;70.53
51289;BME280;37372;52.294;5.152;2022-07-15T06:51:17;102470.81;;;16.62;70.92
51289;BME280;37372;52.294;5.152;2022-07-15T06:53:42;102477.31;;;16.55;69.34
51289;BME280;37372;52.294;5.152;2022-07-15T06:56:08;102472.38;;;16.66;70.28
51289;BME280;37372;52.294;5.152;2022-07-15T06:58:34;102474.69;;;16.82;68.07
51289;BME280;37372;52.294;5.152;2022-07-15T07:00:59;102477.75;;;16.99;67.17
51289;BME280;37372;52.294;5.152;2022-07-15T07:03:25;102478.16;;;17.01;67.03
51289;BME280;37372;52.294;5.152;2022-07-15T07:05:50;102470.41;;;17.05;67.86
51289;BME280;37372;52.294;5.152;2022-07-15T07:08:16;102489.28;;;17.19;64.04
51289;BME280;37372;52.294;5.152;2022-07-15T07:10:41;102484.22;;;17.03;65.94
51289;BME280;37372;52.294;5.152;2022-07-15T07:13:07;102489.72;;;17.17;64.78
51289;BME280;37372;52.294;5.152;2022-07-15T07:15:32;102488.78;;;17.27;64.64
51289;BME280;37372;52.294;5.152;2022-07-15T07:17:57;102495.56;;;17.37;59.87
51289;BME280;37372;52.294;5.152;2022-07-15T07:20:23;102492.53;;;17.17;59.82
51289;BME280;37372;52.294;5.152;2022-07-15T07:22:48;102479.94;;;17.22;62.32
51289;BME280;37372;52.294;5.152;2022-07-15T07:25:13;102489.88;;;17.03;58.94
51289;BME280;37372;52.294;5.152;2022-07-15T07:27:39;102491.41;;;17.11;61.80
51289;BME280;37372;52.294;5.152;2022-07-15T07:30:05;102486.59;;;17.04;62.66
51289;BME280;37372;52.294;5.152;2022-07-15T07:32:31;102482.44;;;17.16;61.22
51289;BME280;37372;52.294;5.152;2022-07-15T07:34:57;102494.91;;;17.22;61.66
51289;BME280;37372;52.294;5.152;2022-07-15T07:37:22;102491.44;;;17.07;62.25
51289;BME280;37372;52.294;5.152;2022-07-15T07:39:48;102496.50;;;17.27;61.05
51289;BME280;37372;52.294;5.152;2022-07-15T07:42:15;102500.06;;;17.34;57.91
51289;BME280;37372;52.294;5.152;2022-07-15T07:44:40;102487.25;;;17.19;61.22
51289;BME280;37372;52.294;5.152;2022-07-15T07:47:07;102495.34;;;17.21;60.46
51289;BME280;37372;52.294;5.152;2022-07-15T07:49:33;102491.38;;;17.49;59.10
51289;BME280;37372;52.294;5.152;2022-07-15T07:51:58;102493.13;;;17.73;57.08
51289;BME280;37372;52.294;5.152;2022-07-15T07:54:24;102497.94;;;17.76;57.75
51289;BME280;37372;52.294;5.152;2022-07-15T07:56:49;102491.28;;;17.90;56.60
51289;BME280;37372;52.294;5.152;2022-07-15T07:59:15;102487.34;;;17.81;59.05
51289;BME280;37372;52.294;5.152;2022-07-15T08:01:40;102491.97;;;17.98;56.60
51289;BME280;37372;52.294;5.152;2022-07-15T08:04:06;102502.19;;;18.22;53.83
51289;BME280;37372;52.294;5.152;2022-07-15T08:06:31;102494.72;;;18.83;53.32
51289;BME280;37372;52.294;5.152;2022-07-15T08:08:59;102500.06;;;19.44;52.87
51289;BME280;37372;52.294;5.152;2022-07-15T08:11:24;102501.13;;;19.30;49.44
51289;BME280;37372;52.294;5.152;2022-07-15T08:13:50;102511.44;;;19.44;49.43
51289;BME280;37372;52.294;5.152;2022-07-15T08:16:15;102498.44;;;19.83;49.89
51289;BME280;37372;52.294;5.152;2022-07-15T08:18:40;102502.44;;;19.66;52.31
51289;BME280;37372;52.294;5.152;2022-07-15T08:21:07;102493.91;;;19.66;53.35
51289;BME280;37372;52.294;5.152;2022-07-15T08:23:32;102501.09;;;19.74;53.90
51289;BME280;37372;52.294;5.152;2022-07-15T08:25:58;102498.00;;;19.45;52.95
51289;BME280;37372;52.294;5.152;2022-07-15T08:28:24;102491.94;;;19.63;53.53
51289;BME280;37372;52.294;5.152;2022-07-15T08:30:50;102486.91;;;19.30;55.58
51289;BME280;37372;52.294;5.152;2022-07-15T08:33:15;102492.75;;;19.43;54.40
51289;BME280;37372;52.294;5.152;2022-07-15T08:35:41;102485.41;;;19.02;55.73
51289;BME280;37372;52.294;5.152;2022-07-15T08:38:08;102476.84;;;19.06;56.55
51289;BME280;37372;52.294;5.152;2022-07-15T08:40:34;102488.31;;;19.42;54.60
51289;BME280;37372;52.294;5.152;2022-07-15T08:43:00;102493.66;;;19.80;54.33
51289;BME280;37372;52.294;5.152;2022-07-15T08:45:26;102495.81;;;19.92;50.90
51289;BME280;37372;52.294;5.152;2022-07-15T08:47:52;102500.69;;;20.45;50.02
51289;BME280;37372;52.294;5.152;2022-07-15T08:50:18;102485.13;;;20.33;50.28
51289;BME280;37372;52.294;5.152;2022-07-15T08:52:45;102482.66;;;19.99;51.67
51289;BME280;37372;52.294;5.152;2022-07-15T08:55:13;102492.03;;;19.79;49.68
51289;BME280;37372;52.294;5.152;2022-07-15T08:57:39;102491.25;;;20.15;49.14
51289;BME280;37372;52.294;5.152;2022-07-15T09:00:06;102490.63;;;20.40;48.68
51289;BME280;37372;52.294;5.152;2022-07-15T09:02:35;102485.94;;;20.66;47.49
51289;BME280;37372;52.294;5.152;2022-07-15T09:08:03;102497.16;;;20.73;47.47
51289;BME280;37372;52.294;5.152;2022-07-15T09:10:48;102485.75;;;20.41;49.12
51289;BME280;37372;52.294;5.152;2022-07-15T09:13:27;102490.97;;;20.42;47.94
51289;BME280;37372;52.294;5.152;2022-07-15T09:15:54;102489.63;;;20.14;48.34
51289;BME280;37372;52.294;5.152;2022-07-15T09:18:21;102481.34;;;20.03;48.70
51289;BME280;37372;52.294;5.152;2022-07-15T09:20:47;102476.94;;;19.82;50.81
51289;BME280;37372;52.294;5.152;2022-07-15T09:23:18;102477.44;;;19.77;51.73
51289;BME280;37372;52.294;5.152;2022-07-15T09:25:55;102481.22;;;19.90;49.36
51289;BME280;37372;52.294;5.152;2022-07-15T09:28:20;102481.63;;;20.25;49.16
51289;BME280;37372;52.294;5.152;2022-07-15T09:30:46;102484.84;;;20.44;50.32
51289;BME280;37372;52.294;5.152;2022-07-15T09:33:35;102474.00;;;20.71;47.74
51289;BME280;37372;52.294;5.152;2022-07-15T09:36:16;102474.28;;;21.06;46.89
51289;BME280;37372;52.294;5.152;2022-07-15T09:38:56;102473.69;;;21.28;45.97
51289;BME280;37372;52.294;5.152;2022-07-15T09:41:26;102464.06;;;21.21;46.63
51289;BME280;37372;52.294;5.152;2022-07-15T09:49:15;102475.28;;;21.29;46.67
51289;BME280;37372;52.294;5.152;2022-07-15T09:54:16;102470.75;;;20.86;46.31
51289;BME280;37372;52.294;5.152;2022-07-15T09:56:42;102470.13;;;20.78;49.26
51289;BME280;37372;52.294;5.152;2022-07-15T09:59:08;102465.41;;;20.88;48.04
51289;BME280;37372;52.294;5.152;2022-07-15T10:01:34;102455.19;;;21.19;48.33
51289;BME280;37372;52.294;5.152;2022-07-15T10:04:00;102455.25;;;21.16;49.64
51289;BME280;37372;52.294;5.152;2022-07-15T10:06:27;102452.75;;;21.47;48.50
51289;BME280;37372;52.294;5.152;2022-07-15T10:08:53;102466.41;;;21.81;46.31
51289;BME280;37372;52.294;5.152;2022-07-15T10:11:20;102456.44;;;21.60;46.37
51289;BME280;37372;52.294;5.152;2022-07-15T10:14:40;102464.34;;;21.82;46.41
51289;BME280;37372;52.294;5.152;2022-07-15T10:22:50;102464.97;;;22.28;45.34
51289;BME280;37372;52.294;5.152;2022-07-15T10:31:22;102460.25;;;22.08;45.26
51289;BME280;37372;52.294;5.152;2022-07-15T10:36:41;102456.59;;;22.08;45.12
51289;BME280;37372;52.294;5.152;2022-07-15T10:39:20;102459.91;;;21.81;43.66
51289;BME280;37372;52.294;5.152;2022-07-15T10:41:58;102452.13;;;21.81;45.18
51289;BME280;37372;52.294;5.152;2022-07-15T10:44:29;102444.13;;;21.63;46.80
51289;BME280;37372;52.294;5.152;2022-07-15T10:47:16;102427.41;;;21.49;49.80
51289;BME280;37372;52.294;5.152;2022-07-15T10:49:44;102421.28;;;21.63;48.41
51289;BME280;37372;52.294;5.152;2022-07-15T10:52:20;102420.13;;;21.74;48.29
51289;BME280;37372;52.294;5.152;2022-07-15T10:57:16;102422.88;;;22.28;45.65
51289;BME280;37372;52.294;5.152;2022-07-15T10:59:50;102415.41;;;22.44;43.96
51289;BME280;37372;52.294;5.152;2022-07-15T11:02:16;102411.00;;;22.30;43.67
51289;BME280;37372;52.294;5.152;2022-07-15T11:04:43;102411.34;;;22.06;43.59
51289;BME280;37372;52.294;5.152;2022-07-15T11:09:57;102416.25;;;22.19;42.89
51289;BME280;37372;52.294;5.152;2022-07-15T11:17:43;102428.69;;;22.12;43.70
51289;BME280;37372;52.294;5.152;2022-07-15T11:20:11;102430.41;;;22.35;42.26
51289;BME280;37372;52.294;5.152;2022-07-15T11:22:40;102431.00;;;22.30;44.14
51289;BME280;37372;52.294;5.152;2022-07-15T11:25:07;102424.50;;;21.91;43.99
51289;BME280;37372;52.294;5.152;2022-07-15T11:27:40;102419.91;;;21.55;45.98
51289;BME280;37372;52.294;5.152;2022-07-15T11:30:06;102421.41;;;21.31;46.24
51289;BME280;37372;52.294;5.152;2022-07-15T11:32:33;102412.69;;;21.21;46.17
51289;BME280;37372;52.294;5.152;2022-07-15T11:35:00;102413.81;;;21.11;46.39
51289;BME280;37372;52.294;5.152;2022-07-15T11:37:35;102416.38;;;20.93;45.66
51289;BME280;37372;52.294;5.152;2022-07-15T11:40:17;102405.94;;;21.44;46.01
51289;BME280;37372;52.294;5.152;2022-07-15T11:43:03;102413.03;;;22.17;42.37
51289;BME280;37372;52.294;5.152;2022-07-15T11:45:47;102412.59;;;21.80;44.63
51289;BME280;37372;52.294;5.152;2022-07-15T11:48:13;102398.66;;;21.82;45.00
51289;BME280;37372;52.294;5.152;2022-07-15T11:50:49;102400.69;;;21.43;44.43
51289;BME280;37372;52.294;5.152;2022-07-15T11:53:15;102409.00;;;21.08;44.49
51289;BME280;37372;52.294;5.152;2022-07-15T11:58:34;102406.81;;;20.70;47.67
51289;BME280;37372;52.294;5.152;2022-07-15T12:01:02;102392.22;;;20.97;47.22
51289;BME280;37372;52.294;5.152;2022-07-15T12:03:36;102392.91;;;20.72;48.82
51289;BME280;37372;52.294;5.152;2022-07-15T12:06:04;102396.41;;;20.93;47.36
51289;BME280;37372;52.294;5.152;2022-07-15T12:08:41;102396.91;;;21.04;47.73
51289;BME280;37372;52.294;5.152;2022-07-15T12:13:44;102400.78;;;21.52;45.28
51289;BME280;37372;52.294;5.152;2022-07-15T12:16:11;102408.47;;;21.55;44.53
51289;BME280;37372;52.294;5.152;2022-07-15T12:18:37;102402.31;;;21.70;44.80
51289;BME280;37372;52.294;5.152;2022-07-15T12:21:02;102401.16;;;22.05;44.48
51289;BME280;37372;52.294;5.152;2022-07-15T12:23:28;102398.53;;;22.11;45.03
51289;BME280;37372;52.294;5.152;2022-07-15T12:26:11;102389.50;;;22.13;44.65
51289;BME280;37372;52.294;5.152;2022-07-15T12:28:37;102400.13;;;22.12;45.15
51289;BME280;37372;52.294;5.152;2022-07-15T12:31:03;102396.47;;;22.11;46.39
51289;BME280;37372;52.294;5.152;2022-07-15T12:33:34;102395.44;;;22.05;45.27
51289;BME280;37372;52.294;5.152;2022-07-15T12:36:22;102382.66;;;22.23;45.54
51289;BME280;37372;52.294;5.152;2022-07-15T12:39:09;102385.50;;;21.97;45.88
51289;BME280;37372;52.294;5.152;2022-07-15T12:41:36;102391.00;;;21.79;45.85
51289;BME280;37372;52.294;5.152;2022-07-15T12:44:06;102392.59;;;21.80;46.88
51289;BME280;37372;52.294;5.152;2022-07-15T12:46:58;102400.81;;;22.16;45.07
51289;BME280;37372;52.294;5.152;2022-07-15T12:49:50;102399.69;;;21.88;45.92
51289;BME280;37372;52.294;5.152;2022-07-15T12:52:22;102400.50;;;22.01;46.43
51289;BME280;37372;52.294;5.152;2022-07-15T12:54:52;102404.28;;;21.98;46.14
51289;BME280;37372;52.294;5.152;2022-07-15T12:57:26;102404.16;;;21.89;45.24
51289;BME280;37372;52.294;5.152;2022-07-15T12:59:58;102396.25;;;21.67;45.97
51289;BME280;37372;52.294;5.152;2022-07-15T13:02:24;102392.16;;;21.68;47.45
51289;BME280;37372;52.294;5.152;2022-07-15T13:04:50;102390.69;;;21.22;46.83
51289;BME280;37372;52.294;5.152;2022-07-15T13:07:16;102392.59;;;21.54;47.28
51289;BME280;37372;52.294;5.152;2022-07-15T13:09:42;102384.22;;;21.47;48.61
51289;BME280;37372;52.294;5.152;2022-07-15T13:12:09;102400.25;;;22.34;45.29
51289;BME280;37372;52.294;5.152;2022-07-15T13:14:37;102393.09;;;22.51;43.25
51289;BME280;37372;52.294;5.152;2022-07-15T13:17:02;102391.06;;;22.74;43.55
51289;BME280;37372;52.294;5.152;2022-07-15T13:19:28;102391.63;;;22.47;43.34
51289;BME280;37372;52.294;5.152;2022-07-15T13:21:53;102386.78;;;22.22;44.62
51289;BME280;37372;52.294;5.152;2022-07-15T13:24:18;102393.59;;;22.37;44.37
51289;BME280;37372;52.294;5.152;2022-07-15T13:26:44;102392.97;;;22.55;43.13
51289;BME280;37372;52.294;5.152;2022-07-15T13:29:09;102390.16;;;22.42;43.18
51289;BME280;37372;52.294;5.152;2022-07-15T13:31:35;102375.88;;;22.42;43.89
51289;BME280;37372;52.294;5.152;2022-07-15T13:34:00;102382.28;;;22.33;43.78